Terminal Aerodrome Forecast
Issued by NWS

Home | Current Version | Previous Version | Text Only | Print | Product List | Glossary Off
Versions: 1 2 3 4 5 6 7 8 9 10 11 12 13 14 15 16 17 18 19

000
FTUS43 KPAH 081127
TAFOWB
TAF
KOWB 081127Z 0812/0912 32010KT P6SM SCT025 BKN090
      TEMPO 0812/0813 BKN025
     FM081500 30011G18KT P6SM SKC
     FM090000 31007KT P6SM SCT250=

USA.gov is the U.S. government's official web portal to all federal, state and local government web resources and services.